Impacts TAF Board
For situational awareness. Not to be used for flight planning purposes.
IDs:

KGUC - Gunnison Arpt, CO, US

Issued at 0530 UTC 15 Jul 2020
Updated at 1037 UTC 15 Jul 2020
Potential Impact None Slight Moderate High
Time0956Z 15/11Z 15/12Z 15/13Z 15/14Z 15/15Z 15/16Z 15/17Z 15/18Z 15/19Z 15/20Z 15/21Z 15/22Z 15/23Z>>
Type OBS PRVL PRVL PRVL PRVL PRVL PRVL PRVL PRVL PRVL PRVL PRVL PRVL PRVL
VIS 10 >6 >6 >6 >6 >6 >6 >6 >6 >6 >6 >6 >6 >6
CIG -- -- -- -- -- -- -- -- -- -- -- -- 100 100
Cover FEW SCT SCT SCT SCT SCT SCT SCT SCT SCT SCT SCT BKN BKN
FltCat VFR VFR VFR VFR VFR VFR VFR VFR VFR VFR VFR VFR VFR VFR
WX -- -- -- -- -- -- -- -- VCTS VCTS VCTS VCTS VCTS VCTS
WDir 30 30 30 30 30 30 30 30 VRB VRB VRB VRB 240 240
WSpd 7 9 9 9 9 9 9 9 3 3 3 3 10 10
WGst -- -- -- -- -- -- -- -- -- -- -- -- -- --
Raw TAF
KGUC 150530Z 1506/1606 03009KT P6SM SCT120
  FM151800 VRB03KT P6SM VCTS SCT100CB
  FM152200 24010KT P6SM VCTS BKN100CB
  FM160200 34005KT P6SM SCT100


Raw METAR
KGUC 150956Z AUTO 03007KT 10SM FEW120 15/08 A3032 RMK AO2 SLP163 T01500083
KGUC 150856Z AUTO 20003KT 10SM BKN100 14/09 A3032 RMK AO2 SLP170 T01440094 50012
KGUC 150756Z AUTO 27003KT 10SM OVC095 16/08 A3032 RMK AO2 SLP168 T01610078

METAR Board
Radar Display
Forecast Discussion
For situational awareness. Not to be used for flight planning purposes.